CYMT

Chapais Airport

Chibougamau, Quebec, Canada
METAR CYMT 160600Z AUTO 25004KT 9SM OVC011 M04/M05 A3018 RMK SLP246
Observed Flight Rules
Dec-16 @ 06:00 UTC (11 minutes ago) Marginal Visual Flight Rules
Wind Visibility Clouds
250° at 4 knots 9 miles
  • Overcast at 1,100' AGL
Temperatures Readings
Current -4°C / 25°F
Dewpoint -5°C / 23°F
Humidity 93%
Altimeter 30.18" Hg
Pressure 1024.6 hPa
Elevation 387
METAR CYMT 160600Z AUTO 25004KT 9SM OVC011 M04/M05 A3018 RMK SLP246
Observed Flight Rules
Dec-16 @ 06:00 UTC
(11 minutes ago)
MVFR
Wind Visibility
250° at 4 knots 9 miles
Clouds
  • Overcast at 1,100' AGL
Temperature Dewpoint
-4°C / 25°F -5°C / 23°F
Humidity Altimeter Pressure
93% 30.18" Hg 1024.6 hPa